Time;durP1;ratioP1;P1;durP2;ratioP2;P2;SDS_P1;SDS_P2;PMS_P1;PMS_P2;Temp;Humidity;BMP_temperature;BMP_pressure;BME280_temperature;BME280_humidity;BME280_pressure;Samples;Min_cycle;Max_cycle;Signal;HPM_P1;HPM_P2
2023/09/24 00:02:11;;;;;;;1.30;1.20;;;21.40;76.20;;;;;;4953069;28;20197;-70
2023/09/24 00:04:39;;;;;;;1.20;1.10;;;21.40;76.20;;;;;;4955670;28;20181;-70
2023/09/24 00:07:05;;;;;;;0.98;0.98;;;21.40;76.20;;;;;;4973210;28;20224;-70
2023/09/24 00:09:32;;;;;;;1.40;1.30;;;21.40;76.20;;;;;;4954883;28;20233;-71
2023/09/24 00:11:57;;;;;;;1.40;1.30;;;21.40;76.20;;;;;;4957857;28;20222;-69
2023/09/24 00:14:26;;;;;;;1.20;1.10;;;21.40;76.20;;;;;;4955506;28;20214;-70
2023/09/24 00:16:52;;;;;;;1.58;1.48;;;21.40;76.20;;;;;;4940428;28;20649;-70
2023/09/24 00:19:18;;;;;;;1.10;1.00;;;21.40;76.10;;;;;;4957571;28;20194;-73
2023/09/24 00:21:46;;;;;;;1.25;1.15;;;21.40;76.40;;;;;;4940679;28;20220;-70
2023/09/24 00:24:11;;;;;;;1.10;0.98;;;21.40;76.10;;;;;;4953624;28;20186;-70
2023/09/24 00:26:38;;;;;;;1.27;1.17;;;21.40;76.10;;;;;;4956181;28;20217;-70
2023/09/24 00:29:04;;;;;;;1.30;1.20;;;21.40;76.10;;;;;;4940120;28;20217;-70
2023/09/24 00:31:33;;;;;;;1.13;1.02;;;21.40;76.10;;;;;;4939900;28;20199;-70
2023/09/24 00:33:58;;;;;;;1.20;1.10;;;21.40;76.00;;;;;;4948142;29;20261;-69
2023/09/24 00:36:24;;;;;;;1.30;1.20;;;21.40;75.90;;;;;;4954532;28;20273;-70
2023/09/24 00:38:50;;;;;;;1.30;1.20;;;21.40;76.00;;;;;;4938973;28;20221;-70
2023/09/24 00:41:17;;;;;;;1.30;1.20;;;21.40;76.10;;;;;;4940177;28;20201;-71
2023/09/24 00:43:43;;;;;;;1.10;1.10;;;21.40;76.00;;;;;;4955351;28;20188;-70
2023/09/24 00:46:11;;;;;;;0.90;0.90;;;21.40;76.10;;;;;;4939064;28;20193;-70
2023/09/24 00:48:38;;;;;;;1.20;1.10;;;21.40;76.10;;;;;;4932891;28;20242;-70
2023/09/24 00:51:21;;;;;;;1.25;1.08;;;21.40;76.10;;;;;;4940154;28;20189;-70
2023/09/24 00:53:49;;;;;;;1.40;1.30;;;21.40;76.10;;;;;;4947941;28;20720;-70
2023/09/24 00:56:16;;;;;;;1.30;1.17;;;21.40;76.20;;;;;;4952643;28;20182;-70
2023/09/24 00:58:47;;;;;;;1.23;1.13;;;21.40;76.90;;;;;;4964702;28;20215;-70
2023/09/24 01:01:13;;;;;;;0.82;0.82;;;21.40;76.10;;;;;;4939160;28;20205;-70
2023/09/24 01:03:40;;;;;;;1.45;1.35;;;21.40;76.00;;;;;;4955833;28;20181;-70
2023/09/24 01:06:07;;;;;;;1.45;1.35;;;21.40;76.00;;;;;;4946438;28;20197;-70
2023/09/24 01:08:33;;;;;;;1.17;1.08;;;21.40;76.00;;;;;;4938871;28;20210;-70
2023/09/24 01:11:01;;;;;;;1.40;1.30;;;21.30;75.90;;;;;;4955618;28;20194;-70
2023/09/24 01:13:41;;;;;;;1.10;1.00;;;21.40;76.00;;;;;;4938915;28;20577;-70
2023/09/24 01:16:08;;;;;;;1.20;1.10;;;21.30;75.70;;;;;;4954635;28;20217;-70
2023/09/24 01:18:44;;;;;;;1.10;1.00;;;21.30;75.90;;;;;;4955610;28;20244;-70
2023/09/24 01:21:17;;;;;;;1.30;1.20;;;21.30;75.80;;;;;;4955504;28;20618;-70
2023/09/24 01:23:45;;;;;;;1.25;1.08;;;21.30;75.80;;;;;;4950748;28;20275;-70
2023/09/24 01:26:18;;;;;;;1.02;1.00;;;21.30;75.90;;;;;;4939232;28;20193;-70
2023/09/24 01:28:44;;;;;;;0.90;0.90;;;21.30;75.90;;;;;;4955531;28;20225;-70
2023/09/24 01:31:10;;;;;;;1.20;1.10;;;21.30;75.90;;;;;;4946555;28;20186;-70
2023/09/24 01:33:39;;;;;;;1.67;1.10;;;21.30;75.80;;;;;;4939930;28;20196;-70
2023/09/24 01:36:09;;;;;;;1.17;1.10;;;21.30;75.80;;;;;;4940341;28;20182;-70
2023/09/24 01:38:35;;;;;;;1.10;0.90;;;21.30;75.80;;;;;;4955479;28;20268;-70
2023/09/24 01:41:04;;;;;;;1.33;1.13;;;21.30;75.90;;;;;;4955518;28;20185;-70
2023/09/24 01:43:29;;;;;;;1.20;1.10;;;21.30;75.80;;;;;;4938852;28;20186;-70
2023/09/24 01:45:55;;;;;;;0.77;0.77;;;21.30;75.80;;;;;;4955473;28;20256;-70
2023/09/24 01:48:21;;;;;;;1.10;1.00;;;21.30;75.80;;;;;;4939517;28;20222;-70
2023/09/24 01:50:47;;;;;;;0.90;0.90;;;21.30;75.80;;;;;;4955507;28;20190;-70
2023/09/24 01:53:14;;;;;;;0.80;0.80;;;21.30;75.70;;;;;;4955547;28;20653;-70
2023/09/24 01:55:40;;;;;;;1.02;1.00;;;21.30;75.50;;;;;;4955325;28;20182;-70
2023/09/24 01:58:06;;;;;;;1.25;1.15;;;21.30;75.50;;;;;;4940262;29;20230;-70
2023/09/24 02:00:33;;;;;;;0.70;0.70;;;21.30;75.60;;;;;;4955015;28;20194;-70
2023/09/24 02:03:05;;;;;;;0.98;0.95;;;21.30;76.30;;;;;;4971936;28;20197;-70
2023/09/24 02:05:36;;;;;;;0.85;0.85;;;21.30;75.40;;;;;;4938958;28;20201;-70
2023/09/24 02:08:08;;;;;;;1.40;1.30;;;21.30;75.50;;;;;;4972321;28;20214;-70
2023/09/24 02:10:34;;;;;;;0.80;0.80;;;21.30;75.60;;;;;;4947426;28;20182;-70
2023/09/24 02:13:03;;;;;;;1.02;0.98;;;21.30;75.60;;;;;;4939315;28;20650;-70
2023/09/24 02:15:29;;;;;;;2.33;1.00;;;21.20;75.60;;;;;;4939360;28;20182;-70
2023/09/24 02:17:55;;;;;;;0.90;0.90;;;21.30;75.60;;;;;;4940484;28;20214;-70
2023/09/24 02:20:25;;;;;;;0.95;0.90;;;21.30;75.70;;;;;;4971310;28;20198;-70
2023/09/24 02:22:57;;;;;;;0.80;0.80;;;21.20;75.50;;;;;;4966934;28;20198;-70
2023/09/24 02:25:29;;;;;;;1.00;1.00;;;21.20;75.50;;;;;;4973735;28;20237;-70
2023/09/24 02:27:57;;;;;;;0.80;0.80;;;21.30;75.60;;;;;;4966452;28;20236;-70
2023/09/24 02:30:27;;;;;;;1.25;1.00;;;21.20;75.50;;;;;;4950814;28;20805;-70
2023/09/24 02:32:53;;;;;;;0.85;0.85;;;21.20;75.50;;;;;;4958681;28;20280;-72
2023/09/24 02:35:19;;;;;;;1.30;1.20;;;21.20;75.40;;;;;;4940637;28;20193;-70
2023/09/24 02:37:47;;;;;;;0.85;0.80;;;21.20;75.30;;;;;;4958388;28;20210;-70
2023/09/24 02:40:21;;;;;;;0.90;0.90;;;21.20;75.30;;;;;;4942152;28;20248;-70
2023/09/24 02:42:49;;;;;;;1.20;1.10;;;21.20;75.20;;;;;;4958150;28;20207;-70
2023/09/24 02:45:15;;;;;;;0.98;0.88;;;21.20;75.30;;;;;;4957861;28;20201;-70
2023/09/24 02:47:43;;;;;;;1.15;1.10;;;21.20;75.20;;;;;;4941858;28;20205;-70
2023/09/24 02:50:12;;;;;;;0.82;0.82;;;21.20;75.10;;;;;;4978074;28;20240;-70
2023/09/24 02:52:49;;;;;;;1.08;0.98;;;21.20;75.30;;;;;;4938144;29;20238;-70
2023/09/24 02:55:15;;;;;;;0.80;0.80;;;21.20;75.40;;;;;;4984628;28;20208;-70
2023/09/24 02:57:44;;;;;;;0.90;0.90;;;21.20;75.40;;;;;;4957884;28;20209;-70
2023/09/24 03:00:18;;;;;;;0.85;0.85;;;21.20;75.40;;;;;;4941784;28;20256;-70
2023/09/24 03:02:45;;;;;;;1.20;1.10;;;21.20;75.40;;;;;;4951361;28;20201;-70
2023/09/24 03:05:20;;;;;;;1.30;0.98;;;21.20;75.30;;;;;;4967333;28;20182;-70
2023/09/24 03:07:50;;;;;;;0.85;0.85;;;21.20;75.40;;;;;;4928073;28;20247;-70
2023/09/24 03:10:18;;;;;;;0.90;0.90;;;21.20;75.30;;;;;;4942225;28;20189;-70
2023/09/24 03:12:45;;;;;;;1.30;0.90;;;21.20;75.00;;;;;;4949961;28;20218;-70
2023/09/24 03:15:11;;;;;;;0.80;0.80;;;21.20;75.00;;;;;;4941502;28;20620;-70
2023/09/24 03:17:38;;;;;;;0.90;0.90;;;21.20;75.10;;;;;;4965198;28;20210;-70
2023/09/24 03:20:14;;;;;;;1.00;1.00;;;21.20;75.00;;;;;;4941499;28;20198;-70
2023/09/24 03:22:51;;;;;;;1.02;0.90;;;21.20;75.10;;;;;;4935625;28;20186;-70
2023/09/24 03:25:27;;;;;;;0.90;0.90;;;21.20;75.10;;;;;;4957275;28;20194;-70
2023/09/24 03:27:57;;;;;;;0.60;0.60;;;21.20;75.20;;;;;;4962272;28;20212;-70
2023/09/24 03:30:23;;;;;;;0.95;0.95;;;21.10;75.00;;;;;;4959005;28;20212;-70
2023/09/24 03:32:52;;;;;;;0.80;0.77;;;21.20;75.20;;;;;;4957145;28;20182;-70
2023/09/24 03:35:23;;;;;;;1.15;1.05;;;21.20;75.20;;;;;;4941121;28;20192;-70
2023/09/24 03:37:51;;;;;;;0.90;0.90;;;21.10;75.00;;;;;;4957075;28;20590;-70
2023/09/24 03:40:24;;;;;;;1.25;0.95;;;21.20;75.10;;;;;;4941114;28;20251;-70
2023/09/24 03:42:50;;;;;;;1.00;1.00;;;21.20;75.20;;;;;;4945979;28;20633;-70
2023/09/24 03:45:19;;;;;;;1.65;0.80;;;21.10;75.00;;;;;;4943705;28;20653;-70
2023/09/24 03:47:46;;;;;;;0.85;0.85;;;21.20;75.00;;;;;;4948079;28;20657;-70
2023/09/24 03:50:16;;;;;;;0.90;0.90;;;21.10;74.80;;;;;;4941162;28;20644;-70
2023/09/24 03:52:44;;;;;;;0.90;0.90;;;21.10;74.70;;;;;;4948072;28;20242;-70
2023/09/24 03:55:11;;;;;;;1.05;1.00;;;21.10;74.60;;;;;;4963860;28;20189;-71
2023/09/24 03:57:39;;;;;;;0.90;0.88;;;21.10;74.80;;;;;;4973638;28;20210;-70
2023/09/24 04:00:11;;;;;;;0.90;0.90;;;21.10;74.80;;;;;;4946872;28;20184;-70
2023/09/24 04:02:40;;;;;;;1.73;0.98;;;21.10;74.60;;;;;;4964903;28;20260;-69
2023/09/24 04:05:09;;;;;;;1.40;1.30;;;21.10;74.80;;;;;;4941111;28;20196;-70
2023/09/24 04:07:38;;;;;;;1.08;1.00;;;21.20;75.00;;;;;;4963512;28;20229;-70
2023/09/24 04:10:06;;;;;;;1.23;0.90;;;21.10;74.90;;;;;;4962792;28;20203;-70
2023/09/24 04:12:35;;;;;;;1.23;1.13;;;21.10;74.80;;;;;;4948072;28;20190;-69
2023/09/24 04:15:02;;;;;;;1.25;1.13;;;21.10;74.90;;;;;;4956396;28;20193;-70
2023/09/24 04:17:28;;;;;;;0.93;0.93;;;21.10;74.80;;;;;;4963752;28;20209;-70
2023/09/24 04:19:54;;;;;;;1.50;1.00;;;21.10;74.90;;;;;;4959126;28;20191;-69
2023/09/24 04:22:22;;;;;;;1.52;1.25;;;21.10;74.90;;;;;;4960536;28;20197;-70
2023/09/24 04:24:51;;;;;;;1.15;1.08;;;21.10;74.90;;;;;;4943115;28;20186;-70
2023/09/24 04:27:16;;;;;;;1.27;1.00;;;21.10;74.70;;;;;;4963919;28;20209;-70
2023/09/24 04:29:42;;;;;;;0.85;0.85;;;21.10;74.60;;;;;;4956738;28;20298;-70
2023/09/24 04:32:09;;;;;;;1.05;0.95;;;21.10;74.50;;;;;;4973716;28;20193;-70
2023/09/24 04:34:35;;;;;;;1.00;1.00;;;21.10;74.50;;;;;;4956241;28;20197;-70
2023/09/24 04:37:01;;;;;;;1.27;1.10;;;21.10;74.40;;;;;;4951782;28;20212;-70
2023/09/24 04:39:26;;;;;;;1.00;0.98;;;21.10;74.50;;;;;;4954076;28;20273;-70
2023/09/24 04:41:52;;;;;;;1.20;1.10;;;21.10;74.50;;;;;;4944319;29;20674;-70
2023/09/24 04:44:18;;;;;;;0.88;0.88;;;21.10;74.20;;;;;;4940072;28;20197;-70
2023/09/24 04:46:44;;;;;;;1.15;1.00;;;21.10;74.40;;;;;;4941371;28;20177;-70
2023/09/24 04:49:09;;;;;;;1.00;1.00;;;21.10;74.10;;;;;;4973275;28;20213;-70
2023/09/24 04:51:35;;;;;;;1.17;1.08;;;21.10;75.30;;;;;;4958332;28;20334;-70
2023/09/24 04:54:02;;;;;;;1.13;0.88;;;21.10;74.10;;;;;;4960900;28;20196;-70
2023/09/24 04:56:28;;;;;;;1.13;1.00;;;21.00;74.90;;;;;;4939842;28;20196;-70
2023/09/24 04:58:54;;;;;;;1.17;1.08;;;21.00;74.00;;;;;;4943990;29;20242;-70
2023/09/24 05:01:20;;;;;;;1.13;1.10;;;21.00;74.30;;;;;;4954000;28;20236;-70
2023/09/24 05:03:52;;;;;;;1.10;1.00;;;21.00;74.60;;;;;;4956126;28;20204;-70
2023/09/24 05:06:18;;;;;;;1.33;1.23;;;21.10;74.60;;;;;;4961710;28;20193;-70
2023/09/24 05:08:45;;;;;;;1.35;1.25;;;21.00;74.50;;;;;;4938834;28;20751;-69
2023/09/24 05:11:13;;;;;;;1.23;1.00;;;21.00;74.60;;;;;;4955886;28;20616;-70
2023/09/24 05:13:40;;;;;;;1.45;1.10;;;21.10;74.50;;;;;;4932092;28;20189;-70
2023/09/24 05:16:06;;;;;;;1.40;1.30;;;21.00;74.50;;;;;;4967144;28;20212;-70
2023/09/24 05:18:34;;;;;;;1.80;1.38;;;21.00;74.50;;;;;;4933799;28;20225;-70
2023/09/24 05:21:00;;;;;;;1.40;1.30;;;21.00;74.40;;;;;;4960453;28;20193;-70
2023/09/24 05:23:26;;;;;;;1.50;1.13;;;21.00;74.00;;;;;;4939307;28;20196;-70
2023/09/24 05:25:52;;;;;;;1.20;1.10;;;21.00;74.00;;;;;;4978812;28;20596;-70
2023/09/24 05:28:18;;;;;;;1.20;1.10;;;21.00;74.00;;;;;;4955698;28;20237;-70
2023/09/24 05:30:53;;;;;;;1.30;1.20;;;21.00;74.00;;;;;;4939614;28;20189;-70
2023/09/24 05:33:19;;;;;;;1.13;0.98;;;21.00;74.00;;;;;;4945653;28;20269;-70
2023/09/24 05:35:51;;;;;;;1.48;1.38;;;21.00;74.00;;;;;;4955455;28;20657;-70
2023/09/24 05:38:16;;;;;;;1.38;1.27;;;21.00;74.00;;;;;;4972943;28;20220;-70
2023/09/24 05:40:42;;;;;;;1.70;1.60;;;21.00;74.00;;;;;;4957459;28;20197;-70
2023/09/24 05:43:09;;;;;;;1.50;1.40;;;21.00;74.00;;;;;;4948010;29;20218;-70
2023/09/24 05:45:35;;;;;;;1.40;1.30;;;21.00;74.00;;;;;;4955437;28;20629;-70
2023/09/24 05:48:00;;;;;;;1.40;1.30;;;21.00;74.00;;;;;;4945165;28;20225;-70
2023/09/24 05:50:26;;;;;;;1.65;1.55;;;21.00;74.00;;;;;;4949029;28;20194;-70
2023/09/24 05:52:52;;;;;;;1.85;1.40;;;21.00;74.00;;;;;;4961897;28;20251;-70
2023/09/24 05:55:19;;;;;;;1.15;1.10;;;21.00;74.00;;;;;;4953460;28;20186;-70
2023/09/24 05:57:44;;;;;;;2.45;1.55;;;21.00;74.20;;;;;;4942690;28;20216;-70
2023/09/24 06:00:12;;;;;;;1.35;1.23;;;21.00;74.20;;;;;;4942719;28;20178;-70
2023/09/24 06:02:38;;;;;;;1.50;1.40;;;21.00;74.50;;;;;;4976725;28;20252;-70
2023/09/24 06:05:07;;;;;;;1.70;1.50;;;21.00;74.00;;;;;;4953405;28;20177;-70
2023/09/24 06:07:32;;;;;;;1.42;1.33;;;21.00;74.10;;;;;;4964843;28;20261;-70
2023/09/24 06:10:04;;;;;;;1.58;1.48;;;21.00;74.00;;;;;;4945881;29;20226;-70
2023/09/24 06:12:31;;;;;;;1.40;1.30;;;21.00;74.00;;;;;;4959091;28;20205;-70
2023/09/24 06:14:57;;;;;;;1.42;1.33;;;21.00;74.00;;;;;;4942833;28;20213;-70
2023/09/24 06:17:23;;;;;;;1.40;1.30;;;21.00;74.00;;;;;;4958714;28;20214;-70
2023/09/24 06:19:49;;;;;;;1.40;1.30;;;21.00;74.00;;;;;;4958724;28;20189;-70
2023/09/24 06:22:14;;;;;;;1.33;1.23;;;21.00;74.00;;;;;;4942693;28;20186;-70
2023/09/24 06:24:40;;;;;;;1.40;1.30;;;21.00;74.00;;;;;;4953139;28;20186;-70
2023/09/24 06:27:06;;;;;;;1.33;1.23;;;21.00;74.00;;;;;;4958390;28;20264;-70
2023/09/24 06:29:35;;;;;;;1.30;1.20;;;21.00;74.00;;;;;;4955666;28;20213;-70
2023/09/24 06:32:01;;;;;;;1.85;1.00;;;21.00;74.00;;;;;;4938081;28;20185;-70
2023/09/24 06:34:27;;;;;;;1.08;1.08;;;21.00;74.00;;;;;;4975850;28;20197;-70
2023/09/24 06:36:53;;;;;;;1.20;1.10;;;21.00;74.00;;;;;;4952422;28;20186;-70
2023/09/24 06:39:18;;;;;;;1.10;1.05;;;20.90;73.90;;;;;;4947785;28;20193;-70
2023/09/24 06:41:44;;;;;;;0.90;0.90;;;20.90;73.90;;;;;;4958492;28;20262;-70
2023/09/24 06:44:11;;;;;;;1.65;1.30;;;21.00;74.30;;;;;;4958341;28;20255;-70
2023/09/24 06:46:36;;;;;;;0.90;0.90;;;21.00;74.00;;;;;;4976287;28;20204;-70
2023/09/24 06:49:02;;;;;;;1.20;1.10;;;20.90;73.90;;;;;;4958093;28;20217;-70
2023/09/24 06:51:28;;;;;;;0.88;0.88;;;20.90;74.30;;;;;;4950690;28;20284;-70
2023/09/24 06:53:54;;;;;;;1.45;1.20;;;20.90;74.20;;;;;;4957998;28;20192;-70
2023/09/24 06:56:19;;;;;;;1.50;1.40;;;20.90;74.40;;;;;;4960342;28;20197;-70
2023/09/24 06:58:47;;;;;;;1.30;1.20;;;21.00;74.50;;;;;;4959842;28;20272;-70
2023/09/24 07:01:13;;;;;;;1.30;1.20;;;20.90;74.20;;;;;;4961035;28;20252;-70
2023/09/24 07:03:38;;;;;;;1.35;1.25;;;21.00;74.30;;;;;;4957028;28;20197;-70
2023/09/24 07:06:06;;;;;;;1.27;1.17;;;21.00;74.30;;;;;;4957989;28;20197;-70
2023/09/24 07:08:35;;;;;;;1.40;1.30;;;21.00;74.10;;;;;;4962724;28;20304;-70
2023/09/24 07:11:19;;;;;;;1.27;1.17;;;21.00;74.10;;;;;;4970670;28;20186;-70
2023/09/24 07:13:46;;;;;;;1.20;1.10;;;21.00;74.00;;;;;;4960674;28;20248;-70
2023/09/24 07:16:12;;;;;;;1.30;1.20;;;21.00;74.00;;;;;;4957881;28;20197;-70
2023/09/24 07:18:38;;;;;;;1.23;1.15;;;21.00;74.10;;;;;;4943294;28;20210;-70
2023/09/24 07:21:05;;;;;;;1.52;1.42;;;21.00;74.10;;;;;;4961903;28;20189;-70
2023/09/24 07:23:30;;;;;;;1.27;1.17;;;21.00;74.20;;;;;;4965781;28;20566;-70
2023/09/24 07:25:56;;;;;;;1.33;1.23;;;20.90;74.40;;;;;;4962636;28;20197;-70
2023/09/24 07:28:24;;;;;;;1.00;1.00;;;21.00;74.50;;;;;;4957166;28;20244;-70
2023/09/24 07:30:52;;;;;;;1.40;1.30;;;21.00;74.70;;;;;;4981469;28;20295;-70
2023/09/24 07:33:19;;;;;;;1.25;1.15;;;21.00;74.60;;;;;;4948316;28;20181;-70
2023/09/24 07:35:46;;;;;;;1.40;1.30;;;21.00;74.50;;;;;;4961732;28;20261;-70
2023/09/24 07:38:12;;;;;;;1.38;1.27;;;21.00;74.50;;;;;;4941186;28;20292;-70
2023/09/24 07:40:39;;;;;;;1.48;1.25;;;21.00;74.50;;;;;;4957651;28;20332;-70
2023/09/24 07:43:07;;;;;;;1.42;1.33;;;21.00;74.60;;;;;;4953338;28;20206;-70
2023/09/24 07:45:33;;;;;;;1.20;1.10;;;21.00;74.70;;;;;;4961371;28;20252;-70
2023/09/24 07:47:58;;;;;;;1.33;1.23;;;21.00;74.60;;;;;;4957309;28;20584;-70
2023/09/24 07:50:24;;;;;;;1.40;1.30;;;21.00;74.60;;;;;;4944016;28;20194;-70
2023/09/24 07:52:50;;;;;;;1.40;1.30;;;21.00;74.50;;;;;;4949718;28;20193;-70
2023/09/24 07:55:15;;;;;;;1.42;1.30;;;21.00;74.60;;;;;;4957088;28;20320;-70
2023/09/24 07:57:41;;;;;;;1.55;1.13;;;21.00;74.50;;;;;;4957427;28;20324;-70
2023/09/24 08:00:08;;;;;;;1.20;1.10;;;21.00;74.60;;;;;;4948039;28;20199;-70
2023/09/24 08:02:37;;;;;;;1.23;1.13;;;21.00;74.60;;;;;;4957651;28;20205;-70
2023/09/24 08:05:03;;;;;;;1.30;1.17;;;21.00;74.30;;;;;;4957098;28;20186;-70
2023/09/24 08:07:32;;;;;;;2.15;1.30;;;21.10;74.40;;;;;;4940886;29;20218;-70
2023/09/24 08:09:59;;;;;;;1.30;1.20;;;21.10;74.10;;;;;;4960215;28;20272;-70
2023/09/24 08:12:25;;;;;;;1.33;1.23;;;21.10;74.10;;;;;;4957175;28;20280;-70
2023/09/24 08:14:50;;;;;;;1.48;1.10;;;21.10;74.10;;;;;;4957144;28;20181;-70
2023/09/24 08:17:16;;;;;;;1.27;1.17;;;21.10;74.10;;;;;;4974290;28;20210;-70
2023/09/24 08:19:42;;;;;;;1.30;1.20;;;21.20;74.20;;;;;;4961474;28;20201;-70
2023/09/24 08:22:08;;;;;;;1.40;1.30;;;21.20;74.20;;;;;;4957214;28;20198;-70
2023/09/24 08:24:34;;;;;;;1.05;1.05;;;21.20;74.20;;;;;;4947996;28;20197;-70
2023/09/24 08:27:00;;;;;;;1.13;1.00;;;21.20;74.20;;;;;;4958350;28;20281;-70
2023/09/24 08:29:26;;;;;;;1.42;1.33;;;21.20;74.20;;;;;;4945527;28;20307;-70
2023/09/24 08:31:52;;;;;;;1.20;1.10;;;21.20;74.20;;;;;;4956232;28;20189;-70
2023/09/24 08:34:17;;;;;;;1.13;1.02;;;21.20;74.00;;;;;;4973743;28;20196;-70
2023/09/24 08:36:43;;;;;;;1.15;1.05;;;21.20;74.10;;;;;;4940350;28;20193;-70
2023/09/24 08:39:09;;;;;;;1.35;1.25;;;21.20;74.00;;;;;;4956280;28;20188;-70
2023/09/24 08:41:44;;;;;;;1.10;1.00;;;21.20;73.90;;;;;;4956706;28;20198;-70
2023/09/24 08:44:16;;;;;;;1.58;1.30;;;21.20;74.30;;;;;;4956498;28;20203;-70
2023/09/24 08:46:46;;;;;;;1.30;1.20;;;21.30;73.90;;;;;;4952924;28;20271;-70
2023/09/24 08:49:13;;;;;;;1.67;1.20;;;21.20;73.80;;;;;;4969978;28;20289;-70
2023/09/24 08:51:40;;;;;;;1.10;1.00;;;21.20;74.00;;;;;;4948435;28;20185;-70
2023/09/24 08:54:06;;;;;;;1.10;1.10;;;21.20;74.60;;;;;;4959119;28;20276;-70
2023/09/24 08:56:33;;;;;;;1.42;1.33;;;21.30;73.90;;;;;;4956531;28;20245;-70
2023/09/24 08:58:59;;;;;;;1.30;1.20;;;21.20;73.80;;;;;;4957860;28;20755;-70
2023/09/24 09:01:25;;;;;;;1.13;1.00;;;21.20;73.80;;;;;;4957434;28;20205;-70
2023/09/24 09:03:51;;;;;;;1.17;1.08;;;21.30;73.80;;;;;;4947202;28;20244;-70
2023/09/24 09:06:37;;;;;;;1.10;1.00;;;21.20;73.90;;;;;;4955888;28;20208;-70
2023/09/24 09:09:03;;;;;;;1.40;1.30;;;21.30;73.90;;;;;;4956168;28;20224;-70
2023/09/24 09:11:46;;;;;;;1.35;1.10;;;21.30;73.70;;;;;;4956455;28;20197;-70
2023/09/24 09:14:13;;;;;;;1.15;1.08;;;21.30;73.90;;;;;;4952931;28;20190;-70
2023/09/24 09:16:57;;;;;;;1.83;1.35;;;21.30;73.70;;;;;;4959089;28;20281;-70
2023/09/24 09:19:24;;;;;;;1.38;1.27;;;21.30;73.80;;;;;;4973252;28;20192;-70
2023/09/24 09:21:50;;;;;;;1.63;0.98;;;21.30;73.60;;;;;;4955878;28;20567;-70
2023/09/24 09:24:23;;;;;;;1.10;1.00;;;21.20;73.50;;;;;;4956117;28;20185;-70
2023/09/24 09:26:57;;;;;;;1.48;0.98;;;21.20;73.40;;;;;;4956824;28;20198;-70
2023/09/24 09:29:25;;;;;;;1.02;0.90;;;21.30;73.60;;;;;;4951318;28;20307;-70
2023/09/24 09:31:50;;;;;;;1.25;1.15;;;21.30;73.60;;;;;;4976973;28;20661;-70
2023/09/24 09:34:17;;;;;;;1.10;0.98;;;21.30;73.70;;;;;;4946707;28;20221;-70
2023/09/24 09:36:43;;;;;;;1.38;1.15;;;21.30;73.70;;;;;;4959456;28;20205;-70
2023/09/24 09:39:09;;;;;;;1.30;1.15;;;21.30;73.60;;;;;;4959714;28;20661;-70
2023/09/24 09:41:39;;;;;;;1.02;1.00;;;21.30;73.60;;;;;;4943947;28;20251;-70
2023/09/24 09:44:07;;;;;;;1.65;1.20;;;21.30;73.60;;;;;;4959823;28;20251;-70
2023/09/24 09:46:39;;;;;;;1.30;1.20;;;21.30;73.70;;;;;;4976460;28;20194;-70
2023/09/24 09:49:10;;;;;;;0.95;0.80;;;21.30;73.60;;;;;;4943429;28;20224;-70
2023/09/24 09:51:48;;;;;;;1.38;1.27;;;21.30;73.60;;;;;;4959415;28;20208;-70
2023/09/24 09:54:16;;;;;;;1.30;1.20;;;21.30;73.50;;;;;;4943129;28;20192;-70
2023/09/24 09:56:43;;;;;;;1.20;1.10;;;21.30;73.50;;;;;;4948364;28;20223;-70
2023/09/24 09:59:09;;;;;;;0.90;0.90;;;21.30;73.30;;;;;;4943728;28;20194;-70
2023/09/24 10:01:36;;;;;;;2.00;1.05;;;21.30;73.40;;;;;;4942860;28;20205;-70
2023/09/24 10:04:07;;;;;;;1.10;1.00;;;21.30;73.40;;;;;;4948415;28;20189;-70
2023/09/24 10:06:37;;;;;;;1.33;1.17;;;21.30;73.40;;;;;;4958695;28;20292;-70
2023/09/24 10:09:31;;;;;;;1.27;0.95;;;21.30;73.40;;;;;;4958794;28;20217;-70
2023/09/24 10:11:57;;;;;;;1.55;1.20;;;21.30;73.30;;;;;;4945804;28;20202;-70
2023/09/24 10:14:42;;;;;;;1.20;1.10;;;21.30;73.20;;;;;;4976378;28;20201;-70
2023/09/24 10:17:20;;;;;;;1.20;1.10;;;21.30;73.40;;;;;;4958676;28;20213;-70
2023/09/24 10:19:55;;;;;;;1.02;0.98;;;21.30;73.40;;;;;;4943338;28;20202;-70
2023/09/24 10:22:32;;;;;;;1.20;1.10;;;21.30;73.40;;;;;;4961071;28;20272;-70
2023/09/24 10:25:00;;;;;;;0.90;0.90;;;21.30;73.40;;;;;;4958997;28;20221;-70
2023/09/24 10:27:32;;;;;;;1.40;1.20;;;21.30;73.20;;;;;;4958419;28;20807;-71
2023/09/24 10:30:00;;;;;;;1.05;0.95;;;21.30;73.20;;;;;;4946999;28;20220;-70
2023/09/24 10:32:26;;;;;;;1.15;1.05;;;21.40;73.20;;;;;;4958770;28;20653;-70
2023/09/24 10:34:54;;;;;;;1.27;1.17;;;21.30;73.20;;;;;;4941914;29;20198;-70
2023/09/24 10:37:58;;;;;;;0.90;0.90;;;21.30;73.00;;;;;;4970506;28;20214;-70
2023/09/24 10:40:26;;;;;;;1.27;1.17;;;21.40;72.90;;;;;;4974367;28;20272;-70
2023/09/24 10:43:21;;;;;;;1.10;1.00;;;21.30;73.10;;;;;;4958520;28;20194;-71
2023/09/24 10:45:48;;;;;;;1.70;1.00;;;21.40;73.00;;;;;;4956781;28;20205;-70
2023/09/24 10:48:14;;;;;;;1.00;1.00;;;21.30;73.10;;;;;;4958135;28;20225;-71
2023/09/24 10:50:41;;;;;;;1.05;0.98;;;21.40;73.00;;;;;;4946756;28;20543;-70
2023/09/24 10:53:08;;;;;;;0.90;0.90;;;21.40;73.10;;;;;;4958407;28;20202;-70
2023/09/24 10:55:45;;;;;;;1.20;1.10;;;21.40;73.00;;;;;;4944218;28;20264;-70
2023/09/24 10:58:16;;;;;;;0.88;0.88;;;21.40;73.00;;;;;;4958285;28;20264;-70
2023/09/24 11:00:49;;;;;;;1.10;1.00;;;21.40;73.00;;;;;;4944104;28;20205;-70
2023/09/24 11:03:15;;;;;;;1.25;1.15;;;21.40;73.20;;;;;;4958181;28;20193;-70
2023/09/24 11:05:40;;;;;;;1.23;1.13;;;21.40;73.00;;;;;;4939413;29;20237;-70
2023/09/24 11:08:08;;;;;;;1.10;1.00;;;21.40;72.90;;;;;;4955721;28;20229;-70
2023/09/24 11:10:34;;;;;;;1.20;1.10;;;21.40;73.00;;;;;;4958020;28;20189;-70
2023/09/24 11:13:03;;;;;;;1.13;0.82;;;21.40;73.10;;;;;;4958000;28;20272;-70
2023/09/24 11:15:32;;;;;;;0.90;0.90;;;21.40;73.00;;;;;;4945140;28;20188;-70
2023/09/24 11:17:59;;;;;;;1.00;1.00;;;21.40;73.10;;;;;;4974873;28;20229;-70
2023/09/24 11:20:28;;;;;;;1.27;0.90;;;21.40;73.00;;;;;;4959624;28;20188;-70
2023/09/24 11:23:05;;;;;;;1.00;1.00;;;21.40;73.00;;;;;;4945226;28;20251;-70
2023/09/24 11:25:31;;;;;;;1.40;0.95;;;21.30;72.70;;;;;;4956930;28;20200;-70
2023/09/24 11:28:00;;;;;;;2.78;1.10;;;21.40;72.70;;;;;;4973918;28;20241;-70
2023/09/24 11:30:38;;;;;;;0.98;0.88;;;21.40;72.90;;;;;;4960262;28;20284;-70
2023/09/24 11:33:18;;;;;;;1.65;1.20;;;21.40;72.90;;;;;;4965478;28;20653;-70
2023/09/24 11:35:45;;;;;;;1.02;0.90;;;21.40;72.80;;;;;;4969116;28;20182;-70
2023/09/24 11:38:12;;;;;;;1.00;1.00;;;21.40;73.00;;;;;;4941543;28;20252;-70
2023/09/24 11:40:41;;;;;;;1.70;1.02;;;21.40;73.20;;;;;;4951180;28;20198;-70
2023/09/24 11:43:15;;;;;;;1.80;1.00;;;21.40;72.90;;;;;;4943824;28;20208;-70
2023/09/24 11:45:50;;;;;;;1.00;0.90;;;21.40;73.00;;;;;;4935445;28;20189;-70
2023/09/24 11:48:26;;;;;;;1.20;1.02;;;21.40;72.90;;;;;;4941386;28;20231;-70
2023/09/24 11:51:01;;;;;;;1.05;0.80;;;21.40;72.90;;;;;;4957041;28;20532;-70
2023/09/24 11:53:26;;;;;;;2.20;1.00;;;21.40;72.70;;;;;;4958420;28;20470;-70
2023/09/24 11:55:58;;;;;;;1.13;1.02;;;21.40;72.30;;;;;;4942215;28;20197;-70
2023/09/24 11:58:26;;;;;;;1.35;1.00;;;21.40;72.50;;;;;;4940367;28;20213;-70
2023/09/24 12:00:57;;;;;;;1.20;1.10;;;21.40;72.40;;;;;;4941073;28;20201;-70
2023/09/24 12:03:23;;;;;;;1.10;1.00;;;21.40;72.40;;;;;;4957032;28;20194;-70
2023/09/24 12:05:51;;;;;;;1.25;1.00;;;21.40;72.30;;;;;;4968179;28;20186;-70
2023/09/24 12:08:17;;;;;;;0.90;0.90;;;21.40;72.30;;;;;;4952484;28;20652;-70
2023/09/24 12:10:50;;;;;;;1.20;1.00;;;21.40;72.70;;;;;;4957471;28;20288;-70
2023/09/24 12:13:17;;;;;;;0.90;0.80;;;21.40;72.60;;;;;;4956896;28;20190;-70
2023/09/24 12:15:44;;;;;;;1.23;1.13;;;21.40;72.40;;;;;;4973658;28;20182;-70
2023/09/24 12:18:11;;;;;;;1.17;1.00;;;21.40;72.60;;;;;;4956757;28;20209;-70
2023/09/24 12:20:40;;;;;;;0.73;0.73;;;21.40;72.40;;;;;;4949427;28;20189;-70
2023/09/24 12:23:07;;;;;;;1.08;0.93;;;21.40;72.50;;;;;;4956491;28;20189;-70
2023/09/24 12:25:42;;;;;;;0.80;0.80;;;21.40;72.80;;;;;;4941970;28;20288;-70
2023/09/24 12:28:11;;;;;;;1.05;0.95;;;21.40;72.70;;;;;;4956380;28;20224;-70
2023/09/24 12:30:38;;;;;;;1.20;1.10;;;21.40;72.80;;;;;;4965523;28;20254;-70
2023/09/24 12:33:05;;;;;;;1.20;1.10;;;21.40;72.40;;;;;;4974004;28;20192;-70
2023/09/24 12:35:30;;;;;;;0.80;0.80;;;21.40;72.30;;;;;;4956825;28;20194;-70
2023/09/24 12:37:56;;;;;;;0.90;0.90;;;21.40;72.40;;;;;;4956550;28;20210;-70
2023/09/24 12:40:23;;;;;;;1.20;1.02;;;21.40;72.20;;;;;;4956710;28;20197;-69
2023/09/24 12:42:49;;;;;;;0.80;0.80;;;21.40;72.30;;;;;;4957174;28;20212;-70
2023/09/24 12:45:16;;;;;;;1.10;1.00;;;21.40;72.00;;;;;;4940811;28;20185;-70
2023/09/24 12:47:42;;;;;;;1.13;1.02;;;21.40;72.00;;;;;;4956084;28;20211;-70
2023/09/24 12:50:10;;;;;;;0.85;0.85;;;21.40;72.00;;;;;;4940147;28;20209;-70
2023/09/24 12:52:44;;;;;;;0.70;0.70;;;21.40;71.90;;;;;;4929906;29;20182;-70
2023/09/24 12:55:13;;;;;;;1.00;0.75;;;21.40;71.50;;;;;;4970138;28;20253;-71